sensor_id;sensor_type;location;lat;lon;timestamp;temperature;humidity
34927;DHT22;21132;48.308;14.274;2023-03-23T00:00:53;13.10;57.00
34927;DHT22;21132;48.308;14.274;2023-03-23T00:03:22;13.10;57.40
34927;DHT22;21132;48.308;14.274;2023-03-23T00:05:51;13.10;56.80
34927;DHT22;21132;48.308;14.274;2023-03-23T00:08:19;13.10;57.00
34927;DHT22;21132;48.308;14.274;2023-03-23T00:10:51;13.10;56.90
34927;DHT22;21132;48.308;14.274;2023-03-23T00:13:19;13.10;57.30
34927;DHT22;21132;48.308;14.274;2023-03-23T00:15:46;13.10;57.30
34927;DHT22;21132;48.308;14.274;2023-03-23T00:18:18;13.10;57.20
34927;DHT22;21132;48.308;14.274;2023-03-23T00:20:54;13.10;57.20
34927;DHT22;21132;48.308;14.274;2023-03-23T00:23:22;13.10;57.10
34927;DHT22;21132;48.308;14.274;2023-03-23T00:25:51;13.10;57.10
34927;DHT22;21132;48.308;14.274;2023-03-23T00:28:19;13.10;57.00
34927;DHT22;21132;48.308;14.274;2023-03-23T00:30:57;13.00;57.00
34927;DHT22;21132;48.308;14.274;2023-03-23T00:33:26;13.00;57.10
34927;DHT22;21132;48.308;14.274;2023-03-23T00:35:53;13.10;57.00
34927;DHT22;21132;48.308;14.274;2023-03-23T00:38:23;13.00;57.10
34927;DHT22;21132;48.308;14.274;2023-03-23T00:40:50;13.00;57.10
34927;DHT22;21132;48.308;14.274;2023-03-23T00:43:17;13.00;57.20
34927;DHT22;21132;48.308;14.274;2023-03-23T00:45:44;13.00;57.20
34927;DHT22;21132;48.308;14.274;2023-03-23T00:48:11;13.00;57.30
34927;DHT22;21132;48.308;14.274;2023-03-23T00:50:39;13.00;57.20
34927;DHT22;21132;48.308;14.274;2023-03-23T00:53:05;12.90;57.50
34927;DHT22;21132;48.308;14.274;2023-03-23T00:55:30;12.90;57.80
34927;DHT22;21132;48.308;14.274;2023-03-23T00:57:56;12.80;57.60
34927;DHT22;21132;48.308;14.274;2023-03-23T01:00:22;12.80;57.40
34927;DHT22;21132;48.308;14.274;2023-03-23T01:02:49;12.80;57.50
34927;DHT22;21132;48.308;14.274;2023-03-23T01:05:17;12.80;57.90
34927;DHT22;21132;48.308;14.274;2023-03-23T01:07:43;12.80;58.00
34927;DHT22;21132;48.308;14.274;2023-03-23T01:10:11;12.70;58.00
34927;DHT22;21132;48.308;14.274;2023-03-23T01:12:47;12.70;57.80
34927;DHT22;21132;48.308;14.274;2023-03-23T01:15:15;12.70;57.80
34927;DHT22;21132;48.308;14.274;2023-03-23T01:17:42;12.70;57.80
34927;DHT22;21132;48.308;14.274;2023-03-23T01:20:08;12.70;57.90
34927;DHT22;21132;48.308;14.274;2023-03-23T02:48:13;12.30;59.20
34927;DHT22;21132;48.308;14.274;2023-03-23T03:35:42;12.20;59.40
34927;DHT22;21132;48.308;14.274;2023-03-23T03:54:27;12.40;59.30
34927;DHT22;21132;48.308;14.274;2023-03-23T04:14:04;12.40;59.40
34927;DHT22;21132;48.308;14.274;2023-03-23T04:16:53;12.40;59.40
34927;DHT22;21132;48.308;14.274;2023-03-23T04:19:24;12.40;59.50
34927;DHT22;21132;48.308;14.274;2023-03-23T04:21:50;12.40;59.40
34927;DHT22;21132;48.308;14.274;2023-03-23T04:24:19;12.40;59.70
34927;DHT22;21132;48.308;14.274;2023-03-23T04:26:52;12.30;59.80
34927;DHT22;21132;48.308;14.274;2023-03-23T04:29:20;12.40;59.70
34927;DHT22;21132;48.308;14.274;2023-03-23T04:31:45;12.30;59.60
34927;DHT22;21132;48.308;14.274;2023-03-23T04:34:11;12.40;59.60
34927;DHT22;21132;48.308;14.274;2023-03-23T04:36:44;12.40;59.60
34927;DHT22;21132;48.308;14.274;2023-03-23T04:39:13;12.40;59.50
34927;DHT22;21132;48.308;14.274;2023-03-23T04:41:42;12.40;59.50
34927;DHT22;21132;48.308;14.274;2023-03-23T04:44:15;12.40;59.60
34927;DHT22;21132;48.308;14.274;2023-03-23T04:46:47;12.40;59.50
34927;DHT22;21132;48.308;14.274;2023-03-23T04:49:16;12.40;59.40
34927;DHT22;21132;48.308;14.274;2023-03-23T04:51:47;12.50;60.10
34927;DHT22;21132;48.308;14.274;2023-03-23T04:54:14;12.40;59.40
34927;DHT22;21132;48.308;14.274;2023-03-23T04:56:40;12.50;59.40
34927;DHT22;21132;48.308;14.274;2023-03-23T04:59:11;12.50;59.50
34927;DHT22;21132;48.308;14.274;2023-03-23T05:01:40;12.50;59.50
34927;DHT22;21132;48.308;14.274;2023-03-23T05:04:08;12.40;59.60
34927;DHT22;21132;48.308;14.274;2023-03-23T05:06:34;12.40;59.60
34927;DHT22;21132;48.308;14.274;2023-03-23T05:09:00;12.40;59.50
34927;DHT22;21132;48.308;14.274;2023-03-23T05:11:26;12.50;59.70
34927;DHT22;21132;48.308;14.274;2023-03-23T05:13:52;12.50;59.80
34927;DHT22;21132;48.308;14.274;2023-03-23T05:16:18;12.50;59.90
34927;DHT22;21132;48.308;14.274;2023-03-23T05:18:44;12.40;59.90
34927;DHT22;21132;48.308;14.274;2023-03-23T05:21:11;12.40;59.90
34927;DHT22;21132;48.308;14.274;2023-03-23T05:23:37;12.50;60.00
34927;DHT22;21132;48.308;14.274;2023-03-23T05:26:03;12.50;60.00
34927;DHT22;21132;48.308;14.274;2023-03-23T05:28:29;12.50;60.20
34927;DHT22;21132;48.308;14.274;2023-03-23T05:30:56;12.50;60.50
34927;DHT22;21132;48.308;14.274;2023-03-23T05:33:22;12.40;60.50
34927;DHT22;21132;48.308;14.274;2023-03-23T05:35:48;12.40;60.70
34927;DHT22;21132;48.308;14.274;2023-03-23T05:38:15;12.40;60.90
34927;DHT22;21132;48.308;14.274;2023-03-23T05:40:42;12.50;60.80
34927;DHT22;21132;48.308;14.274;2023-03-23T05:43:09;12.40;60.50
34927;DHT22;21132;48.308;14.274;2023-03-23T05:45:35;12.50;60.50
34927;DHT22;21132;48.308;14.274;2023-03-23T05:48:01;12.50;60.50
34927;DHT22;21132;48.308;14.274;2023-03-23T05:50:27;12.60;60.60
34927;DHT22;21132;48.308;14.274;2023-03-23T05:52:54;12.60;60.60
34927;DHT22;21132;48.308;14.274;2023-03-23T05:55:20;12.60;60.60
34927;DHT22;21132;48.308;14.274;2023-03-23T05:57:46;12.70;60.60
34927;DHT22;21132;48.308;14.274;2023-03-23T06:00:15;12.70;60.50
34927;DHT22;21132;48.308;14.274;2023-03-23T06:02:45;12.80;60.50
34927;DHT22;21132;48.308;14.274;2023-03-23T06:05:11;12.80;60.30
34927;DHT22;21132;48.308;14.274;2023-03-23T06:07:37;12.90;60.20
34927;DHT22;21132;48.308;14.274;2023-03-23T06:10:05;12.90;60.10
34927;DHT22;21132;48.308;14.274;2023-03-23T06:12:32;13.00;60.10
34927;DHT22;21132;48.308;14.274;2023-03-23T06:14:58;13.00;60.10
34927;DHT22;21132;48.308;14.274;2023-03-23T06:17:24;13.10;60.10
34927;DHT22;21132;48.308;14.274;2023-03-23T06:19:51;13.10;60.00
34927;DHT22;21132;48.308;14.274;2023-03-23T06:22:17;13.20;60.00
34927;DHT22;21132;48.308;14.274;2023-03-23T06:24:44;13.20;59.80
34927;DHT22;21132;48.308;14.274;2023-03-23T06:27:24;13.30;59.80
34927;DHT22;21132;48.308;14.274;2023-03-23T06:29:52;13.40;59.80
34927;DHT22;21132;48.308;14.274;2023-03-23T06:32:18;13.40;59.70
34927;DHT22;21132;48.308;14.274;2023-03-23T06:34:44;13.50;59.60
34927;DHT22;21132;48.308;14.274;2023-03-23T06:37:12;13.60;59.60
34927;DHT22;21132;48.308;14.274;2023-03-23T06:39:38;13.60;59.40
34927;DHT22;21132;48.308;14.274;2023-03-23T06:42:04;13.70;59.20
34927;DHT22;21132;48.308;14.274;2023-03-23T06:44:31;13.80;59.10
34927;DHT22;21132;48.308;14.274;2023-03-23T06:46:58;13.80;58.90
34927;DHT22;21132;48.308;14.274;2023-03-23T06:49:23;13.90;58.90
34927;DHT22;21132;48.308;14.274;2023-03-23T06:51:49;13.90;58.80
34927;DHT22;21132;48.308;14.274;2023-03-23T06:54:16;14.00;58.70
34927;DHT22;21132;48.308;14.274;2023-03-23T06:56:42;14.00;58.60
34927;DHT22;21132;48.308;14.274;2023-03-23T06:59:11;14.00;58.50
34927;DHT22;21132;48.308;14.274;2023-03-23T07:01:42;14.00;58.30
34927;DHT22;21132;48.308;14.274;2023-03-23T07:04:08;14.00;58.20
34927;DHT22;21132;48.308;14.274;2023-03-23T07:06:34;14.00;58.20
34927;DHT22;21132;48.308;14.274;2023-03-23T07:09:03;14.00;58.20
34927;DHT22;21132;48.308;14.274;2023-03-23T07:11:29;14.00;58.20
34927;DHT22;21132;48.308;14.274;2023-03-23T07:13:55;14.00;58.20
34927;DHT22;21132;48.308;14.274;2023-03-23T07:16:21;14.00;58.20
34927;DHT22;21132;48.308;14.274;2023-03-23T07:18:50;13.90;58.20
34927;DHT22;21132;48.308;14.274;2023-03-23T07:21:16;14.00;58.30
34927;DHT22;21132;48.308;14.274;2023-03-23T07:23:42;14.00;58.30
34927;DHT22;21132;48.308;14.274;2023-03-23T07:26:08;14.00;58.40
34927;DHT22;21132;48.308;14.274;2023-03-23T07:28:34;14.10;58.60
34927;DHT22;21132;48.308;14.274;2023-03-23T07:31:02;14.10;58.70
34927;DHT22;21132;48.308;14.274;2023-03-23T07:33:29;14.20;58.80
34927;DHT22;21132;48.308;14.274;2023-03-23T07:35:58;14.40;58.80
34927;DHT22;21132;48.308;14.274;2023-03-23T07:38:26;14.50;58.60
34927;DHT22;21132;48.308;14.274;2023-03-23T07:40:53;14.60;58.40
34927;DHT22;21132;48.308;14.274;2023-03-23T07:43:19;14.80;58.10
34927;DHT22;21132;48.308;14.274;2023-03-23T07:45:46;14.90;57.70
34927;DHT22;21132;48.308;14.274;2023-03-23T07:48:12;15.00;57.50
34927;DHT22;21132;48.308;14.274;2023-03-23T07:50:38;15.10;58.10
34927;DHT22;21132;48.308;14.274;2023-03-23T07:53:05;15.20;57.50
34927;DHT22;21132;48.308;14.274;2023-03-23T07:55:32;15.40;57.30
34927;DHT22;21132;48.308;14.274;2023-03-23T07:57:58;15.60;57.20
34927;DHT22;21132;48.308;14.274;2023-03-23T08:00:24;15.70;56.80
34927;DHT22;21132;48.308;14.274;2023-03-23T08:02:53;15.90;56.20
34927;DHT22;21132;48.308;14.274;2023-03-23T08:05:21;16.10;55.80
34927;DHT22;21132;48.308;14.274;2023-03-23T08:07:48;16.20;55.40
34927;DHT22;21132;48.308;14.274;2023-03-23T08:10:15;16.30;54.90
34927;DHT22;21132;48.308;14.274;2023-03-23T08:12:46;16.40;54.30
34927;DHT22;21132;48.308;14.274;2023-03-23T08:15:13;16.40;54.00
34927;DHT22;21132;48.308;14.274;2023-03-23T08:17:40;16.40;53.80
34927;DHT22;21132;48.308;14.274;2023-03-23T08:20:12;16.40;53.80
34927;DHT22;21132;48.308;14.274;2023-03-23T08:22:43;16.30;53.70
34927;DHT22;21132;48.308;14.274;2023-03-23T08:25:12;16.30;53.80
34927;DHT22;21132;48.308;14.274;2023-03-23T08:27:38;16.20;54.00
34927;DHT22;21132;48.308;14.274;2023-03-23T08:30:13;16.20;54.20
34927;DHT22;21132;48.308;14.274;2023-03-23T08:32:43;16.20;54.40
34927;DHT22;21132;48.308;14.274;2023-03-23T08:35:10;16.20;54.50
34927;DHT22;21132;48.308;14.274;2023-03-23T08:37:38;16.30;54.40
34927;DHT22;21132;48.308;14.274;2023-03-23T08:40:04;16.40;54.20
34927;DHT22;21132;48.308;14.274;2023-03-23T08:42:36;16.40;54.30
34927;DHT22;21132;48.308;14.274;2023-03-23T08:45:04;16.50;54.20
34927;DHT22;21132;48.308;14.274;2023-03-23T08:47:30;16.70;54.30
34927;DHT22;21132;48.308;14.274;2023-03-23T08:49:56;16.70;54.10
34927;DHT22;21132;48.308;14.274;2023-03-23T08:52:22;16.80;54.30
34927;DHT22;21132;48.308;14.274;2023-03-23T08:54:50;17.00;54.20
34927;DHT22;21132;48.308;14.274;2023-03-23T08:57:16;17.20;54.20
34927;DHT22;21132;48.308;14.274;2023-03-23T08:59:42;17.30;53.50
34927;DHT22;21132;48.308;14.274;2023-03-23T09:02:10;17.50;53.60
34927;DHT22;21132;48.308;14.274;2023-03-23T09:04:38;17.70;52.60
34927;DHT22;21132;48.308;14.274;2023-03-23T09:07:05;17.90;52.00
34927;DHT22;21132;48.308;14.274;2023-03-23T09:09:32;18.00;52.00
34927;DHT22;21132;48.308;14.274;2023-03-23T09:11:59;18.20;52.40
34927;DHT22;21132;48.308;14.274;2023-03-23T09:14:25;18.40;52.60
34927;DHT22;21132;48.308;14.274;2023-03-23T09:16:52;18.60;51.90
34927;DHT22;21132;48.308;14.274;2023-03-23T09:19:18;18.80;51.00
34927;DHT22;21132;48.308;14.274;2023-03-23T09:21:44;19.00;49.90
34927;DHT22;21132;48.308;14.274;2023-03-23T09:24:11;19.20;49.20
34927;DHT22;21132;48.308;14.274;2023-03-23T09:26:40;19.30;48.40
34927;DHT22;21132;48.308;14.274;2023-03-23T09:29:06;19.30;47.70
34927;DHT22;21132;48.308;14.274;2023-03-23T09:31:32;19.50;47.20
34927;DHT22;21132;48.308;14.274;2023-03-23T09:33:58;19.50;47.50
34927;DHT22;21132;48.308;14.274;2023-03-23T09:36:25;19.60;47.50
34927;DHT22;21132;48.308;14.274;2023-03-23T09:38:57;19.70;47.90
34927;DHT22;21132;48.308;14.274;2023-03-23T09:44:45;19.90;47.40
34927;DHT22;21132;48.308;14.274;2023-03-23T09:47:52;20.00;46.20
34927;DHT22;21132;48.308;14.274;2023-03-23T09:50:26;20.00;46.80
34927;DHT22;21132;48.308;14.274;2023-03-23T09:53:04;20.10;46.50
34927;DHT22;21132;48.308;14.274;2023-03-23T09:55:34;20.10;46.50
34927;DHT22;21132;48.308;14.274;2023-03-23T10:01:06;20.20;46.10
34927;DHT22;21132;48.308;14.274;2023-03-23T10:03:42;20.30;45.70
34927;DHT22;21132;48.308;14.274;2023-03-23T10:06:15;20.30;45.80
34927;DHT22;21132;48.308;14.274;2023-03-23T10:08:52;20.40;45.90
34927;DHT22;21132;48.308;14.274;2023-03-23T10:11:24;20.50;45.70
34927;DHT22;21132;48.308;14.274;2023-03-23T10:14:00;20.60;45.70
34927;DHT22;21132;48.308;14.274;2023-03-23T10:16:46;20.70;47.20
34927;DHT22;21132;48.308;14.274;2023-03-23T10:22:01;20.90;45.30
34927;DHT22;21132;48.308;14.274;2023-03-23T10:24:35;21.00;46.70
34927;DHT22;21132;48.308;14.274;2023-03-23T10:27:07;21.10;45.00
34927;DHT22;21132;48.308;14.274;2023-03-23T10:29:42;21.20;44.90
34927;DHT22;21132;48.308;14.274;2023-03-23T10:32:21;21.20;44.80
34927;DHT22;21132;48.308;14.274;2023-03-23T10:34:57;21.30;44.20
34927;DHT22;21132;48.308;14.274;2023-03-23T10:37:38;21.30;44.10
34927;DHT22;21132;48.308;14.274;2023-03-23T10:40:14;21.20;43.70
34927;DHT22;21132;48.308;14.274;2023-03-23T10:42:41;21.20;43.30
34927;DHT22;21132;48.308;14.274;2023-03-23T10:47:52;21.00;43.50
34927;DHT22;21132;48.308;14.274;2023-03-23T10:50:30;21.00;43.50
34927;DHT22;21132;48.308;14.274;2023-03-23T10:53:00;21.00;43.80
34927;DHT22;21132;48.308;14.274;2023-03-23T10:55:44;20.90;43.60
34927;DHT22;21132;48.308;14.274;2023-03-23T10:58:26;20.90;43.40
34927;DHT22;21132;48.308;14.274;2023-03-23T11:00:55;20.90;43.50
34927;DHT22;21132;48.308;14.274;2023-03-23T11:03:23;20.90;43.40
34927;DHT22;21132;48.308;14.274;2023-03-23T11:05:55;20.90;43.60
34927;DHT22;21132;48.308;14.274;2023-03-23T11:08:29;20.80;43.70
34927;DHT22;21132;48.308;14.274;2023-03-23T11:13:40;20.90;44.90
34927;DHT22;21132;48.308;14.274;2023-03-23T11:16:09;20.90;43.90
34927;DHT22;21132;48.308;14.274;2023-03-23T11:18:42;20.90;43.90
34927;DHT22;21132;48.308;14.274;2023-03-23T11:21:12;20.90;43.80
34927;DHT22;21132;48.308;14.274;2023-03-23T11:23:41;20.90;43.80
34927;DHT22;21132;48.308;14.274;2023-03-23T11:26:28;20.90;43.90
34927;DHT22;21132;48.308;14.274;2023-03-23T11:31:35;21.00;43.30
34927;DHT22;21132;48.308;14.274;2023-03-23T11:34:20;21.00;43.40
34927;DHT22;21132;48.308;14.274;2023-03-23T11:36:57;21.10;43.90
34927;DHT22;21132;48.308;14.274;2023-03-23T11:39:29;21.20;43.10
34927;DHT22;21132;48.308;14.274;2023-03-23T11:41:58;21.20;42.70
34927;DHT22;21132;48.308;14.274;2023-03-23T11:44:33;21.30;41.90
34927;DHT22;21132;48.308;14.274;2023-03-23T11:47:38;21.40;41.70
34927;DHT22;21132;48.308;14.274;2023-03-23T11:58:17;21.90;41.90
34927;DHT22;21132;48.308;14.274;2023-03-23T12:00:49;22.00;40.90
34927;DHT22;21132;48.308;14.274;2023-03-23T12:03:18;22.10;41.30
34927;DHT22;21132;48.308;14.274;2023-03-23T12:09:08;22.30;41.30
34927;DHT22;21132;48.308;14.274;2023-03-23T12:11:43;22.50;40.40
34927;DHT22;21132;48.308;14.274;2023-03-23T12:14:16;22.60;40.10
34927;DHT22;21132;48.308;14.274;2023-03-23T12:19:43;22.80;40.10
34927;DHT22;21132;48.308;14.274;2023-03-23T12:22:42;22.90;40.00
34927;DHT22;21132;48.308;14.274;2023-03-23T12:30:55;23.20;38.90
34927;DHT22;21132;48.308;14.274;2023-03-23T12:33:54;23.30;38.50
34927;DHT22;21132;48.308;14.274;2023-03-23T12:44:39;23.50;37.60
34927;DHT22;21132;48.308;14.274;2023-03-23T12:47:37;23.60;36.90
34927;DHT22;21132;48.308;14.274;2023-03-23T12:53:12;23.70;35.90
34927;DHT22;21132;48.308;14.274;2023-03-23T12:55:52;23.80;35.60
34927;DHT22;21132;48.308;14.274;2023-03-23T12:58:22;23.80;34.50
34927;DHT22;21132;48.308;14.274;2023-03-23T13:01:10;23.80;35.00
34927;DHT22;21132;48.308;14.274;2023-03-23T13:11:53;24.10;35.00
34927;DHT22;21132;48.308;14.274;2023-03-23T13:17:48;24.20;34.20
34927;DHT22;21132;48.308;14.274;2023-03-23T13:20:39;24.30;33.50
34927;DHT22;21132;48.308;14.274;2023-03-23T13:28:20;24.60;33.70
34927;DHT22;21132;48.308;14.274;2023-03-23T13:31:15;24.70;33.10
34927;DHT22;21132;48.308;14.274;2023-03-23T13:33:53;24.80;33.60
34927;DHT22;21132;48.308;14.274;2023-03-23T13:36:58;24.80;33.20
34927;DHT22;21132;48.308;14.274;2023-03-23T13:39:31;24.90;33.10
34927;DHT22;21132;48.308;14.274;2023-03-23T13:50:12;25.20;33.00
34927;DHT22;21132;48.308;14.274;2023-03-23T13:57:55;25.20;32.70
34927;DHT22;21132;48.308;14.274;2023-03-23T14:05:40;25.20;33.00
34927;DHT22;21132;48.308;14.274;2023-03-23T14:08:14;25.20;32.30
34927;DHT22;21132;48.308;14.274;2023-03-23T14:10:58;25.30;32.80
34927;DHT22;21132;48.308;14.274;2023-03-23T14:13:50;25.30;32.90
34927;DHT22;21132;48.308;14.274;2023-03-23T14:16:24;25.40;32.70
34927;DHT22;21132;48.308;14.274;2023-03-23T14:18:56;25.40;33.00
34927;DHT22;21132;48.308;14.274;2023-03-23T14:21:35;25.40;32.90
34927;DHT22;21132;48.308;14.274;2023-03-23T14:24:22;25.50;33.00
34927;DHT22;21132;48.308;14.274;2023-03-23T14:26:49;25.60;32.90
34927;DHT22;21132;48.308;14.274;2023-03-23T14:29:19;25.60;33.10
34927;DHT22;21132;48.308;14.274;2023-03-23T14:31:54;25.70;32.80
34927;DHT22;21132;48.308;14.274;2023-03-23T14:34:22;25.70;32.40
34927;DHT22;21132;48.308;14.274;2023-03-23T14:36:49;25.80;32.20
34927;DHT22;21132;48.308;14.274;2023-03-23T14:41:41;25.90;32.10
34927;DHT22;21132;48.308;14.274;2023-03-23T14:44:16;25.90;32.20
34927;DHT22;21132;48.308;14.274;2023-03-23T14:46:46;25.90;32.10
34927;DHT22;21132;48.308;14.274;2023-03-23T14:49:15;26.00;32.30
34927;DHT22;21132;48.308;14.274;2023-03-23T14:51:54;26.10;31.80
34927;DHT22;21132;48.308;14.274;2023-03-23T14:54:26;26.20;31.60
34927;DHT22;21132;48.308;14.274;2023-03-23T14:56:53;26.20;31.60
34927;DHT22;21132;48.308;14.274;2023-03-23T14:59:19;26.20;30.30
34927;DHT22;21132;48.308;14.274;2023-03-23T15:01:47;26.10;30.80
34927;DHT22;21132;48.308;14.274;2023-03-23T15:04:23;26.10;30.10
34927;DHT22;21132;48.308;14.274;2023-03-23T15:06:55;26.00;30.00
34927;DHT22;21132;48.308;14.274;2023-03-23T15:09:23;26.00;30.30
34927;DHT22;21132;48.308;14.274;2023-03-23T15:11:59;25.90;30.00
34927;DHT22;21132;48.308;14.274;2023-03-23T15:14:47;25.90;29.40
34927;DHT22;21132;48.308;14.274;2023-03-23T15:17:24;25.80;29.70
34927;DHT22;21132;48.308;14.274;2023-03-23T15:19:52;25.70;28.50
34927;DHT22;21132;48.308;14.274;2023-03-23T15:24:44;25.60;28.80
34927;DHT22;21132;48.308;14.274;2023-03-23T15:27:13;25.50;29.00
34927;DHT22;21132;48.308;14.274;2023-03-23T15:29:53;25.50;28.90
34927;DHT22;21132;48.308;14.274;2023-03-23T15:32:25;25.40;29.10
34927;DHT22;21132;48.308;14.274;2023-03-23T15:34:52;25.40;28.60
34927;DHT22;21132;48.308;14.274;2023-03-23T15:39:47;25.20;29.10
34927;DHT22;21132;48.308;14.274;2023-03-23T15:42:34;25.10;29.10
34927;DHT22;21132;48.308;14.274;2023-03-23T15:50:33;24.90;29.60
34927;DHT22;21132;48.308;14.274;2023-03-23T15:53:01;24.90;29.70
34927;DHT22;21132;48.308;14.274;2023-03-23T15:55:37;24.90;29.60
34927;DHT22;21132;48.308;14.274;2023-03-23T15:58:13;24.90;30.40
34927;DHT22;21132;48.308;14.274;2023-03-23T16:00:40;24.90;29.50
34927;DHT22;21132;48.308;14.274;2023-03-23T16:03:15;24.90;29.70
34927;DHT22;21132;48.308;14.274;2023-03-23T16:05:48;24.80;29.10
34927;DHT22;21132;48.308;14.274;2023-03-23T16:08:14;24.80;29.40
34927;DHT22;21132;48.308;14.274;2023-03-23T16:10:41;24.70;29.40
34927;DHT22;21132;48.308;14.274;2023-03-23T16:13:07;24.60;29.40
34927;DHT22;21132;48.308;14.274;2023-03-23T16:15:33;24.60;29.70
34927;DHT22;21132;48.308;14.274;2023-03-23T16:17:59;24.50;29.80
34927;DHT22;21132;48.308;14.274;2023-03-23T16:20:24;24.40;29.50
34927;DHT22;21132;48.308;14.274;2023-03-23T16:22:51;24.30;30.00
34927;DHT22;21132;48.308;14.274;2023-03-23T16:25:18;24.20;29.90
34927;DHT22;21132;48.308;14.274;2023-03-23T16:27:44;24.20;30.00
34927;DHT22;21132;48.308;14.274;2023-03-23T16:30:21;24.00;30.20
34927;DHT22;21132;48.308;14.274;2023-03-23T16:32:50;24.00;30.20
34927;DHT22;21132;48.308;14.274;2023-03-23T16:35:22;23.90;30.30
34927;DHT22;21132;48.308;14.274;2023-03-23T16:37:53;23.90;31.00
34927;DHT22;21132;48.308;14.274;2023-03-23T16:40:24;23.80;31.50
34927;DHT22;21132;48.308;14.274;2023-03-23T16:42:54;23.70;31.30
34927;DHT22;21132;48.308;14.274;2023-03-23T16:45:26;23.70;31.30
34927;DHT22;21132;48.308;14.274;2023-03-23T16:48:02;23.60;31.70
34927;DHT22;21132;48.308;14.274;2023-03-23T16:50:30;23.50;31.80
34927;DHT22;21132;48.308;14.274;2023-03-23T16:52:57;23.40;32.10
34927;DHT22;21132;48.308;14.274;2023-03-23T16:55:26;23.30;32.30
34927;DHT22;21132;48.308;14.274;2023-03-23T16:57:57;23.20;32.90
34927;DHT22;21132;48.308;14.274;2023-03-23T17:00:24;23.10;33.50
34927;DHT22;21132;48.308;14.274;2023-03-23T17:02:53;23.00;33.30
34927;DHT22;21132;48.308;14.274;2023-03-23T17:05:23;22.90;33.50
34927;DHT22;21132;48.308;14.274;2023-03-23T17:07:53;22.80;33.90
34927;DHT22;21132;48.308;14.274;2023-03-23T17:10:22;22.60;34.40
34927;DHT22;21132;48.308;14.274;2023-03-23T17:12:48;22.50;34.40
34927;DHT22;21132;48.308;14.274;2023-03-23T17:15:13;22.40;34.60
34927;DHT22;21132;48.308;14.274;2023-03-23T17:17:39;22.30;34.80
34927;DHT22;21132;48.308;14.274;2023-03-23T17:20:06;22.20;34.80
34927;DHT22;21132;48.308;14.274;2023-03-23T17:22:35;22.10;35.30
34927;DHT22;21132;48.308;14.274;2023-03-23T17:25:01;22.00;35.70
34927;DHT22;21132;48.308;14.274;2023-03-23T17:27:27;21.90;35.50
34927;DHT22;21132;48.308;14.274;2023-03-23T17:29:57;21.80;35.50
34927;DHT22;21132;48.308;14.274;2023-03-23T17:32:25;21.70;35.60
34927;DHT22;21132;48.308;14.274;2023-03-23T17:34:52;21.60;36.20
34927;DHT22;21132;48.308;14.274;2023-03-23T17:37:24;21.50;36.30
34927;DHT22;21132;48.308;14.274;2023-03-23T17:39:50;21.40;36.40
34927;DHT22;21132;48.308;14.274;2023-03-23T17:42:16;21.30;36.50
34927;DHT22;21132;48.308;14.274;2023-03-23T17:44:43;21.20;37.10
34927;DHT22;21132;48.308;14.274;2023-03-23T17:47:10;21.10;37.20
34927;DHT22;21132;48.308;14.274;2023-03-23T17:49:37;21.10;37.40
34927;DHT22;21132;48.308;14.274;2023-03-23T17:52:03;21.00;37.50
34927;DHT22;21132;48.308;14.274;2023-03-23T17:54:29;21.00;37.70
34927;DHT22;21132;48.308;14.274;2023-03-23T17:56:58;20.90;37.50
34927;DHT22;21132;48.308;14.274;2023-03-23T17:59:28;20.90;37.70
34927;DHT22;21132;48.308;14.274;2023-03-23T18:01:55;20.80;37.70
34927;DHT22;21132;48.308;14.274;2023-03-23T18:04:22;20.80;38.30
34927;DHT22;21132;48.308;14.274;2023-03-23T18:06:55;20.70;38.70
34927;DHT22;21132;48.308;14.274;2023-03-23T18:09:22;20.60;38.50
34927;DHT22;21132;48.308;14.274;2023-03-23T18:11:48;20.60;38.70
34927;DHT22;21132;48.308;14.274;2023-03-23T18:14:15;20.60;38.60
34927;DHT22;21132;48.308;14.274;2023-03-23T18:16:41;20.50;39.20
34927;DHT22;21132;48.308;14.274;2023-03-23T18:19:06;20.50;39.30
34927;DHT22;21132;48.308;14.274;2023-03-23T18:21:32;20.40;39.60
34927;DHT22;21132;48.308;14.274;2023-03-23T18:23:59;20.40;39.50
34927;DHT22;21132;48.308;14.274;2023-03-23T18:26:26;20.40;39.70
34927;DHT22;21132;48.308;14.274;2023-03-23T18:28:59;20.30;39.70
34927;DHT22;21132;48.308;14.274;2023-03-23T18:31:25;20.30;40.20
34927;DHT22;21132;48.308;14.274;2023-03-23T18:33:53;20.20;40.20
34927;DHT22;21132;48.308;14.274;2023-03-23T18:36:23;20.20;40.90
34927;DHT22;21132;48.308;14.274;2023-03-23T18:38:52;20.20;40.60
34927;DHT22;21132;48.308;14.274;2023-03-23T18:41:20;20.10;40.80
34927;DHT22;21132;48.308;14.274;2023-03-23T18:43:46;20.10;41.20
34927;DHT22;21132;48.308;14.274;2023-03-23T18:46:16;20.10;41.20
34927;DHT22;21132;48.308;14.274;2023-03-23T18:48:42;20.00;41.00
34927;DHT22;21132;48.308;14.274;2023-03-23T18:51:09;20.00;41.10
34927;DHT22;21132;48.308;14.274;2023-03-23T18:53:35;20.00;40.90
34927;DHT22;21132;48.308;14.274;2023-03-23T18:56:10;20.00;41.10
34927;DHT22;21132;48.308;14.274;2023-03-23T18:58:37;19.90;41.20
34927;DHT22;21132;48.308;14.274;2023-03-23T19:01:11;20.00;41.70
34927;DHT22;21132;48.308;14.274;2023-03-23T19:03:38;19.90;41.60
34927;DHT22;21132;48.308;14.274;2023-03-23T19:06:05;20.00;42.10
34927;DHT22;21132;48.308;14.274;2023-03-23T19:08:38;19.90;41.90
34927;DHT22;21132;48.308;14.274;2023-03-23T19:11:05;19.90;42.10
34927;DHT22;21132;48.308;14.274;2023-03-23T19:13:33;19.90;41.30
34927;DHT22;21132;48.308;14.274;2023-03-23T19:16:00;19.90;42.40
34927;DHT22;21132;48.308;14.274;2023-03-23T19:18:26;19.90;42.20
34927;DHT22;21132;48.308;14.274;2023-03-23T19:21:01;19.80;42.50
34927;DHT22;21132;48.308;14.274;2023-03-23T19:23:28;19.80;43.00
34927;DHT22;21132;48.308;14.274;2023-03-23T19:25:55;19.80;43.50
34927;DHT22;21132;48.308;14.274;2023-03-23T19:28:22;19.70;43.20
34927;DHT22;21132;48.308;14.274;2023-03-23T19:30:53;19.70;43.40
34927;DHT22;21132;48.308;14.274;2023-03-23T19:33:20;19.70;43.30
34927;DHT22;21132;48.308;14.274;2023-03-23T19:35:51;19.70;43.20
34927;DHT22;21132;48.308;14.274;2023-03-23T19:38:21;19.60;43.30
34927;DHT22;21132;48.308;14.274;2023-03-23T19:40:55;19.60;43.70
34927;DHT22;21132;48.308;14.274;2023-03-23T19:43:26;19.60;44.20
34927;DHT22;21132;48.308;14.274;2023-03-23T19:45:55;19.50;43.60
34927;DHT22;21132;48.308;14.274;2023-03-23T19:48:25;19.50;43.50
34927;DHT22;21132;48.308;14.274;2023-03-23T19:50:52;19.50;44.20
34927;DHT22;21132;48.308;14.274;2023-03-23T19:53:21;19.50;44.20